Terminal Aerodrome Forecast
Issued by NWS

Home | Current Version | Previous Version | Text Only | Print | Product List | Glossary On
Versions: 1 2 3 4 5 6 7 8 9 10 11 12 13 14 15
000
FTUS44 KSJT 281722
TAFJCT
TAF
KJCT 281722Z 2818/2918 17008KT P6SM SKC
     FM281900 16011G17KT P6SM SKC
     FM290000 15009KT P6SM SKC=

USA.gov is the U.S. government's official web portal to all federal, state and local government web resources and services.